createdAt,value
2019-03-03T00:00:21.227Z,6.40
2019-03-03T00:02:49.754Z,5.57
2019-03-03T00:05:18.206Z,6.43
2019-03-03T00:07:46.663Z,6.60
2019-03-03T00:10:15.183Z,6.20
2019-03-03T00:12:44.132Z,6.17
2019-03-03T00:15:13.331Z,5.80
2019-03-03T00:17:41.785Z,5.40
2019-03-03T00:20:15.042Z,5.50
2019-03-03T00:22:43.594Z,5.40
2019-03-03T00:25:14.168Z,5.43
2019-03-03T00:27:42.796Z,5.27
2019-03-03T00:30:21.337Z,5.90
2019-03-03T00:32:49.786Z,5.80
2019-03-03T00:35:18.469Z,5.77
2019-03-03T00:37:48.574Z,6.30
2019-03-03T00:40:34.751Z,5.97
2019-03-03T00:43:13.849Z,5.43
2019-03-03T00:45:56.267Z,6.07
2019-03-03T00:48:35.377Z,5.90
2019-03-03T00:51:05.570Z,5.67
2019-03-03T00:53:47.717Z,5.60
2019-03-03T00:56:17.866Z,5.63
2019-03-03T00:58:50.651Z,5.97
2019-03-03T01:01:20.757Z,5.63
2019-03-03T01:03:59.590Z,6.50
2019-03-03T01:06:41.647Z,5.73
2019-03-03T01:09:38.473Z,6.40
2019-03-03T01:12:08.711Z,5.90
2019-03-03T01:14:38.822Z,6.10
2019-03-03T01:17:15.046Z,6.40
2019-03-03T01:19:54.273Z,6.27
2019-03-03T01:22:32.965Z,6.53
2019-03-03T01:25:01.419Z,7.50
2019-03-03T01:27:29.893Z,7.20
2019-03-03T01:29:58.406Z,8.17
2019-03-03T01:32:26.879Z,7.33
2019-03-03T01:34:55.404Z,7.77
2019-03-03T01:37:23.864Z,7.93
2019-03-03T01:39:52.314Z,7.70
2019-03-03T01:42:20.798Z,7.80
2019-03-03T01:44:52.153Z,7.60
2019-03-03T01:47:20.612Z,7.87
2019-03-03T01:49:49.073Z,8.30
2019-03-03T01:52:17.531Z,7.43
2019-03-03T01:54:45.988Z,7.33
2019-03-03T01:57:14.534Z,8.30
2019-03-03T01:59:45.680Z,8.60
2019-03-03T02:02:14.141Z,8.00
2019-03-03T02:04:42.707Z,8.33
2019-03-03T02:07:11.272Z,8.33
2019-03-03T02:09:39.807Z,7.63
2019-03-03T02:12:08.325Z,7.23
2019-03-03T02:14:36.781Z,7.97
2019-03-03T02:17:06.167Z,7.73
2019-03-03T02:19:34.698Z,7.20
2019-03-03T02:22:03.149Z,7.47
2019-03-03T02:24:31.627Z,6.93
2019-03-03T02:27:00.142Z,6.47
2019-03-03T02:29:28.724Z,7.13
2019-03-03T02:31:57.241Z,6.63
2019-03-03T02:34:25.797Z,6.23
2019-03-03T02:36:54.235Z,6.93
2019-03-03T02:39:22.692Z,6.60
2019-03-03T02:41:51.279Z,6.00
2019-03-03T02:44:19.886Z,6.07
2019-03-03T02:46:48.345Z,6.30
2019-03-03T02:49:16.799Z,5.83
2019-03-03T02:51:45.475Z,5.83
2019-03-03T02:54:14.056Z,5.00
2019-03-03T02:56:42.528Z,5.43
2019-03-03T02:59:11.010Z,5.70
2019-03-03T03:01:41.136Z,4.77
2019-03-03T03:04:09.577Z,4.23
2019-03-03T03:06:42.403Z,4.47
2019-03-03T03:09:21.054Z,4.27
2019-03-03T03:11:53.921Z,4.40
2019-03-03T03:14:35.985Z,4.60
2019-03-03T03:17:22.356Z,4.70
2019-03-03T03:19:58.513Z,4.23
2019-03-03T03:22:34.352Z,4.70
2019-03-03T03:25:20.880Z,4.87
2019-03-03T03:27:56.901Z,3.93
2019-03-03T03:30:30.220Z,3.90
2019-03-03T03:33:15.242Z,4.83
2019-03-03T03:35:45.421Z,4.30
2019-03-03T03:38:15.518Z,4.20
2019-03-03T03:40:54.968Z,4.10
2019-03-03T03:43:25.060Z,3.57
2019-03-03T03:45:55.301Z,3.77
2019-03-03T03:48:41.623Z,4.30
2019-03-03T03:51:29.004Z,4.27
2019-03-03T03:53:59.160Z,4.07
2019-03-03T03:56:29.885Z,4.00
2019-03-03T03:58:59.978Z,3.57
2019-03-03T04:01:38.779Z,3.30
2019-03-03T04:04:11.885Z,3.77
2019-03-03T04:06:41.981Z,3.40
2019-03-03T04:09:25.405Z,3.50
2019-03-03T04:12:04.577Z,3.20
2019-03-03T04:14:40.456Z,3.60
2019-03-03T04:17:13.236Z,3.43
2019-03-03T04:19:59.733Z,3.23
2019-03-03T04:22:29.875Z,3.10
2019-03-03T04:25:15.166Z,3.03
2019-03-03T04:27:45.294Z,2.63
2019-03-03T04:30:15.465Z,3.10
2019-03-03T04:32:48.533Z,2.80
2019-03-03T04:35:21.480Z,3.30
2019-03-03T04:37:57.434Z,3.17
2019-03-03T04:40:39.281Z,2.80
2019-03-03T04:43:09.393Z,2.50
2019-03-03T04:45:49.014Z,2.50
2019-03-03T04:48:31.010Z,2.53
2019-03-03T04:51:03.779Z,2.67
2019-03-03T04:53:36.571Z,2.50
2019-03-03T04:56:06.664Z,2.53
2019-03-03T04:58:39.776Z,2.77
2019-03-03T05:01:15.884Z,3.03
2019-03-03T05:04:01.288Z,2.50
2019-03-03T05:06:37.169Z,2.23
2019-03-03T05:09:08.692Z,2.20
2019-03-03T05:12:19.968Z,2.17
2019-03-03T05:14:48.896Z,2.03
2019-03-03T05:17:19.239Z,2.37
2019-03-03T05:19:49.342Z,2.57
2019-03-03T05:22:17.796Z,2.00
2019-03-03T05:24:46.264Z,2.03
2019-03-03T05:27:14.882Z,2.40
2019-03-03T05:29:43.315Z,2.40
2019-03-03T05:32:11.808Z,2.00
2019-03-03T05:34:43.114Z,2.10
2019-03-03T05:37:11.663Z,2.10
2019-03-03T05:39:40.221Z,1.90
2019-03-03T05:42:08.738Z,1.90
2019-03-03T05:44:37.289Z,2.10
2019-03-03T05:47:05.846Z,1.97
2019-03-03T05:49:34.365Z,2.30
2019-03-03T05:52:03.036Z,2.50
2019-03-03T05:54:31.506Z,2.27
2019-03-03T05:57:00.020Z,2.13
2019-03-03T05:59:28.489Z,2.23
2019-03-03T06:01:57.004Z,1.90
2019-03-03T06:04:25.549Z,2.27
2019-03-03T06:06:54.069Z,2.20
2019-03-03T06:09:22.530Z,2.30
2019-03-03T06:11:50.974Z,2.10
2019-03-03T06:14:19.447Z,2.37
2019-03-03T06:16:47.908Z,2.30
2019-03-03T06:19:16.406Z,2.40
2019-03-03T06:21:44.867Z,2.20
2019-03-03T06:24:13.329Z,2.33
2019-03-03T06:26:41.780Z,2.30
2019-03-03T06:29:10.254Z,2.60
2019-03-03T06:31:38.701Z,2.63
2019-03-03T06:34:07.310Z,2.90
2019-03-03T06:36:35.767Z,2.07
2019-03-03T06:39:05.773Z,2.73
2019-03-03T06:41:34.226Z,2.57
2019-03-03T06:44:08.767Z,2.67
2019-03-03T06:46:37.574Z,2.20
2019-03-03T06:49:06.143Z,2.50
2019-03-03T06:51:34.712Z,2.40
2019-03-03T06:54:03.370Z,2.20
2019-03-03T06:56:31.884Z,3.47
2019-03-03T06:59:00.400Z,2.20
2019-03-03T07:01:28.979Z,2.03
2019-03-03T07:03:57.453Z,2.27
2019-03-03T07:06:25.923Z,2.33
2019-03-03T07:08:54.376Z,1.97
2019-03-03T07:11:22.825Z,2.10
2019-03-03T07:13:51.377Z,2.37
2019-03-03T07:16:19.824Z,2.07
2019-03-03T07:18:48.277Z,2.33
2019-03-03T07:21:16.733Z,2.50
2019-03-03T07:23:45.187Z,3.23
2019-03-03T07:26:13.919Z,3.37
2019-03-03T07:28:42.391Z,3.80
2019-03-03T07:31:10.947Z,3.83
2019-03-03T07:33:39.463Z,4.70
2019-03-03T07:36:07.923Z,4.43
2019-03-03T07:38:36.453Z,3.13
2019-03-03T07:41:04.931Z,3.37
2019-03-03T07:43:33.676Z,4.20
2019-03-03T07:46:02.148Z,3.87
2019-03-03T07:48:30.703Z,2.73
2019-03-03T07:50:59.200Z,3.30
2019-03-03T07:53:27.695Z,3.20
2019-03-03T07:55:56.148Z,3.20
2019-03-03T07:58:24.725Z,4.40
2019-03-03T08:00:53.173Z,2.40
2019-03-03T08:03:21.639Z,2.67
2019-03-03T08:05:50.154Z,3.47
2019-03-03T08:08:18.606Z,3.40
2019-03-03T08:10:47.092Z,3.07
2019-03-03T08:13:15.552Z,3.20
2019-03-03T08:15:43.997Z,3.53
2019-03-03T08:18:12.469Z,3.10
2019-03-03T08:20:40.939Z,2.63
2019-03-03T08:23:09.399Z,3.13
2019-03-03T08:25:37.855Z,3.00
2019-03-03T08:28:06.491Z,2.70
2019-03-03T08:30:34.944Z,2.83
2019-03-03T08:33:03.412Z,2.73
2019-03-03T08:35:33.040Z,2.50
2019-03-03T08:38:01.498Z,2.30
2019-03-03T08:40:30.232Z,3.00
2019-03-03T08:43:04.161Z,2.63
2019-03-03T08:45:40.582Z,2.83
2019-03-03T08:48:19.345Z,3.17
2019-03-03T08:50:52.424Z,3.33
2019-03-03T08:53:31.746Z,2.80
2019-03-03T08:56:07.897Z,3.73
2019-03-03T08:58:50.349Z,2.83
2019-03-03T09:01:29.156Z,2.90
2019-03-03T09:03:59.420Z,3.60
2019-03-03T09:06:32.891Z,3.37
2019-03-03T09:09:03.075Z,3.00
2019-03-03T09:11:39.878Z,3.30
2019-03-03T09:14:26.596Z,2.97
2019-03-03T09:17:13.193Z,2.70
2019-03-03T09:19:59.504Z,3.17
2019-03-03T09:22:29.696Z,3.57
2019-03-03T09:25:06.090Z,3.67
2019-03-03T09:27:39.270Z,3.30
2019-03-03T09:30:29.640Z,3.23
2019-03-03T09:33:05.601Z,3.17
2019-03-03T09:35:50.559Z,2.90
2019-03-03T09:38:20.727Z,3.40
2019-03-03T09:40:53.590Z,3.63
2019-03-03T09:43:40.144Z,3.20
2019-03-03T09:46:10.239Z,3.07
2019-03-03T09:48:49.647Z,2.90
2019-03-03T09:51:22.360Z,2.83
2019-03-03T09:53:58.244Z,3.40
2019-03-03T09:56:31.089Z,2.90
2019-03-03T09:59:17.579Z,3.20
2019-03-03T10:02:04.011Z,2.63
2019-03-03T10:04:39.884Z,2.63
2019-03-03T10:07:26.622Z,2.20
2019-03-03T10:10:05.452Z,2.53
2019-03-03T10:12:38.267Z,2.70
2019-03-03T10:15:27.325Z,2.67
2019-03-03T10:17:57.408Z,3.27
2019-03-03T10:20:36.622Z,2.47
2019-03-03T10:23:06.959Z,2.30
2019-03-03T10:25:37.105Z,2.73
2019-03-03T10:28:16.474Z,2.60
2019-03-03T10:30:58.392Z,2.87
2019-03-03T10:33:37.822Z,2.87
2019-03-03T10:36:26.516Z,2.57
2019-03-03T10:38:56.694Z,2.37
2019-03-03T10:41:32.683Z,2.53
2019-03-03T10:44:08.692Z,2.97
2019-03-03T10:46:50.822Z,2.57
2019-03-03T10:49:26.927Z,2.50
2019-03-03T10:52:13.297Z,2.23
2019-03-03T10:54:46.483Z,2.57
2019-03-03T10:57:31.724Z,2.27
2019-03-03T11:00:01.998Z,2.27
2019-03-03T11:02:41.175Z,3.03
2019-03-03T11:05:14.276Z,2.90
2019-03-03T11:08:02.856Z,2.70
2019-03-03T11:10:33.052Z,2.53
2019-03-03T11:13:03.330Z,2.10
2019-03-03T11:15:50.135Z,2.53
2019-03-03T11:18:23.400Z,2.43
2019-03-03T11:21:05.542Z,1.97
2019-03-03T11:23:47.663Z,2.63
2019-03-03T11:26:23.770Z,2.70
2019-03-03T11:29:09.295Z,2.53
2019-03-03T11:31:42.320Z,2.13
2019-03-03T11:34:15.091Z,2.60
2019-03-03T11:36:50.953Z,2.07
2019-03-03T11:39:23.953Z,2.40
2019-03-03T11:41:59.892Z,2.53
2019-03-03T11:44:38.812Z,2.47
2019-03-03T11:47:25.027Z,2.13
2019-03-03T11:50:01.181Z,2.43
2019-03-03T11:52:33.746Z,2.77
2019-03-03T11:55:03.839Z,2.30
2019-03-03T11:57:39.817Z,2.53
2019-03-03T12:00:24.294Z,2.47
2019-03-03T12:03:03.435Z,2.50
2019-03-03T12:05:39.925Z,2.60
2019-03-03T12:08:18.955Z,2.40
2019-03-03T12:10:55.128Z,2.40
2019-03-03T12:13:31.458Z,2.33
2019-03-03T12:16:19.872Z,2.10
2019-03-03T12:18:55.596Z,1.83
2019-03-03T12:21:31.519Z,1.93
2019-03-03T12:24:01.738Z,2.30
2019-03-03T12:26:40.599Z,2.23
2019-03-03T12:29:11.725Z,2.20
2019-03-03T12:31:47.961Z,2.30
2019-03-03T12:34:33.097Z,2.27
2019-03-03T12:37:19.879Z,2.47
2019-03-03T12:39:50.182Z,2.63
2019-03-03T12:42:26.338Z,2.30
2019-03-03T12:44:56.721Z,2.17
2019-03-03T12:47:38.800Z,2.73
2019-03-03T12:50:11.890Z,1.97
2019-03-03T12:52:50.581Z,1.87
2019-03-03T12:55:23.919Z,2.27
2019-03-03T12:57:57.031Z,2.50
2019-03-03T13:00:42.931Z,2.43
2019-03-03T13:03:15.872Z,2.23
2019-03-03T13:05:46.051Z,2.13
2019-03-03T13:08:32.656Z,2.00
2019-03-03T13:11:02.856Z,2.30
2019-03-03T13:13:41.657Z,2.40
2019-03-03T13:16:11.755Z,1.73
2019-03-03T13:18:56.859Z,2.07
2019-03-03T13:21:33.120Z,1.60
2019-03-03T13:24:09.285Z,1.97
2019-03-03T13:26:48.238Z,2.30
2019-03-03T13:29:33.687Z,1.97
2019-03-03T13:32:03.794Z,1.70
2019-03-03T13:34:36.778Z,2.40
2019-03-03T13:37:07.017Z,2.00
2019-03-03T13:39:46.392Z,2.10
2019-03-03T13:42:31.983Z,2.20
2019-03-03T13:45:00.477Z,2.07
2019-03-03T13:47:28.991Z,1.83
2019-03-03T13:49:57.525Z,2.13
2019-03-03T13:52:26.061Z,1.77
2019-03-03T13:54:54.603Z,1.50
2019-03-03T13:57:23.056Z,1.70
2019-03-03T13:59:51.534Z,1.87
2019-03-03T14:02:20.424Z,1.40
2019-03-03T14:04:48.877Z,1.77
2019-03-03T14:07:17.363Z,1.30
2019-03-03T14:09:45.920Z,1.30
2019-03-03T14:12:14.483Z,1.67
2019-03-03T14:14:42.975Z,1.20
2019-03-03T14:17:11.584Z,1.57
2019-03-03T14:19:40.229Z,1.53
2019-03-03T14:22:08.674Z,1.93
2019-03-03T14:24:37.134Z,1.57
2019-03-03T14:27:10.510Z,1.90
2019-03-03T14:29:35.927Z,1.47
2019-03-03T14:32:04.440Z,1.40
2019-03-03T14:34:33.039Z,1.57
2019-03-03T14:37:01.559Z,1.27
2019-03-03T14:39:30.088Z,1.20
2019-03-03T14:41:58.560Z,1.20
2019-03-03T14:44:27.021Z,1.30
2019-03-03T14:46:55.489Z,1.37
2019-03-03T14:49:24.023Z,2.27
2019-03-03T14:51:52.561Z,1.50
2019-03-03T14:54:21.054Z,1.80
2019-03-03T14:56:49.513Z,1.30
2019-03-03T14:59:18.008Z,1.10
2019-03-03T15:01:46.681Z,1.10
2019-03-03T15:04:15.248Z,1.10
2019-03-03T15:06:43.816Z,1.20
2019-03-03T15:09:19.493Z,1.40
2019-03-03T15:11:48.245Z,1.77
2019-03-03T15:14:16.742Z,1.50
2019-03-03T15:16:45.345Z,1.50
2019-03-03T15:19:13.843Z,1.40
2019-03-03T15:21:42.485Z,1.03
2019-03-03T15:24:10.933Z,1.60
2019-03-03T15:26:39.531Z,1.50
2019-03-03T15:29:08.087Z,1.57
2019-03-03T15:31:37.904Z,1.93
2019-03-03T15:34:06.602Z,1.40
2019-03-03T15:36:35.056Z,1.70
2019-03-03T15:39:05.108Z,1.80
2019-03-03T15:41:33.701Z,1.33
2019-03-03T15:44:02.551Z,1.47
2019-03-03T15:46:32.021Z,1.70
2019-03-03T15:49:00.583Z,2.07
2019-03-03T15:51:29.061Z,1.97
2019-03-03T15:53:57.519Z,1.50
2019-03-03T15:56:26.005Z,1.87
2019-03-03T15:58:55.858Z,1.47
2019-03-03T16:01:24.639Z,1.77
2019-03-03T16:03:53.100Z,1.93
2019-03-03T16:06:21.577Z,1.57
2019-03-03T16:08:50.034Z,2.03
2019-03-03T16:11:18.580Z,2.10
2019-03-03T16:13:47.066Z,1.70
2019-03-03T16:16:15.515Z,1.80
2019-03-03T16:18:43.981Z,1.93
2019-03-03T16:21:12.492Z,2.00
2019-03-03T16:23:41.096Z,1.90
2019-03-03T16:26:10.186Z,2.20
2019-03-03T16:28:39.186Z,1.60
2019-03-03T16:31:07.910Z,1.90
2019-03-03T16:33:36.450Z,2.13
2019-03-03T16:36:05.603Z,2.20
2019-03-03T16:38:34.071Z,1.97
2019-03-03T16:41:02.555Z,2.27
2019-03-03T16:43:31.156Z,2.17
2019-03-03T16:45:59.698Z,2.00
2019-03-03T16:48:28.471Z,2.43
2019-03-03T16:50:56.900Z,2.10
2019-03-03T16:53:25.406Z,2.27
2019-03-03T16:55:53.860Z,2.20
2019-03-03T16:58:22.335Z,2.50
2019-03-03T17:00:50.863Z,1.90
2019-03-03T17:03:19.324Z,2.27
2019-03-03T17:05:47.805Z,2.67
2019-03-03T17:08:16.330Z,2.23
2019-03-03T17:10:44.787Z,2.30
2019-03-03T17:13:13.259Z,2.40
2019-03-03T17:15:41.727Z,1.77
2019-03-03T17:18:10.260Z,2.27
2019-03-03T17:20:38.777Z,2.07
2019-03-03T17:23:07.343Z,2.40
2019-03-03T17:25:35.800Z,1.93
2019-03-03T17:28:04.322Z,1.93
2019-03-03T17:30:32.981Z,2.43
2019-03-03T17:33:01.417Z,2.40
2019-03-03T17:35:29.927Z,3.33
2019-03-03T17:37:58.388Z,2.40
2019-03-03T17:40:27.855Z,2.17
2019-03-03T17:42:56.382Z,2.90
2019-03-03T17:45:25.585Z,3.30
2019-03-03T17:47:54.118Z,2.80
2019-03-03T17:50:25.188Z,2.30
2019-03-03T17:52:53.701Z,2.50
2019-03-03T17:55:22.867Z,2.70
2019-03-03T17:57:51.396Z,2.90
2019-03-03T18:00:34.221Z,2.70
2019-03-03T18:03:02.727Z,2.43
2019-03-03T18:05:31.277Z,3.07
2019-03-03T18:07:59.818Z,3.30
2019-03-03T18:10:28.394Z,3.20
2019-03-03T18:12:56.917Z,2.70
2019-03-03T18:15:25.475Z,3.53
2019-03-03T18:17:54.193Z,3.27
2019-03-03T18:20:22.913Z,3.37
2019-03-03T18:22:51.439Z,3.00
2019-03-03T18:25:23.013Z,2.83
2019-03-03T18:27:51.602Z,1.90
2019-03-03T18:30:27.723Z,2.83
2019-03-03T18:32:56.493Z,2.90
2019-03-03T18:35:25.741Z,3.20
2019-03-03T18:37:54.292Z,5.33
2019-03-03T18:40:24.409Z,4.00
2019-03-03T18:42:52.969Z,3.40
2019-03-03T18:45:22.770Z,3.10
2019-03-03T18:47:51.370Z,2.93
2019-03-03T18:50:21.690Z,2.97
2019-03-03T18:52:50.139Z,4.40
2019-03-03T18:55:19.162Z,4.23
2019-03-03T18:57:47.758Z,3.50
2019-03-03T19:00:22.603Z,3.13
2019-03-03T19:02:51.740Z,3.37
2019-03-03T19:05:20.524Z,2.00
2019-03-03T19:07:49.432Z,2.80
2019-03-03T19:10:25.088Z,2.97
2019-03-03T19:12:53.461Z,2.33
2019-03-03T19:15:22.155Z,2.70
2019-03-03T19:17:50.691Z,3.10
2019-03-03T19:20:20.492Z,2.43
2019-03-03T19:22:49.243Z,2.40
2019-03-03T19:25:18.148Z,2.40
2019-03-03T19:27:46.695Z,2.10
2019-03-03T19:30:24.565Z,2.70
2019-03-03T19:33:23.405Z,2.23
2019-03-03T19:35:52.066Z,2.50
2019-03-03T19:38:20.534Z,2.27
2019-03-03T19:40:49.374Z,2.53
2019-03-03T19:43:17.899Z,2.90
2019-03-03T19:45:58.605Z,2.23
2019-03-03T19:48:27.047Z,2.37
2019-03-03T19:50:55.648Z,2.17
2019-03-03T19:53:24.915Z,2.27
2019-03-03T19:55:53.560Z,2.93
2019-03-03T19:58:22.062Z,2.27
2019-03-03T20:00:50.729Z,2.10
2019-03-03T20:03:19.584Z,2.63
2019-03-03T20:05:48.135Z,2.40
2019-03-03T20:08:16.693Z,2.30
2019-03-03T20:10:45.226Z,2.50
2019-03-03T20:13:13.678Z,2.10
2019-03-03T20:15:42.195Z,2.00
2019-03-03T20:18:10.945Z,1.80
2019-03-03T20:20:39.761Z,2.17
2019-03-03T20:23:08.506Z,2.20
2019-03-03T20:25:36.962Z,2.20
2019-03-03T20:28:05.774Z,2.50
2019-03-03T20:30:34.431Z,1.90
2019-03-03T20:33:02.990Z,2.50
2019-03-03T20:35:31.480Z,2.10
2019-03-03T20:38:00.297Z,2.30
2019-03-03T20:40:29.138Z,2.40
2019-03-03T20:42:57.725Z,1.93
2019-03-03T20:45:31.165Z,2.13
2019-03-03T20:47:59.914Z,2.03
2019-03-03T20:50:28.440Z,2.27
2019-03-03T20:52:57.112Z,1.90
2019-03-03T20:55:31.278Z,2.37
2019-03-03T20:57:59.816Z,2.00
2019-03-03T21:00:35.101Z,2.03
2019-03-03T21:03:03.559Z,2.23
2019-03-03T21:05:32.006Z,2.30
2019-03-03T21:08:00.868Z,2.00
2019-03-03T21:10:30.728Z,1.90
2019-03-03T21:13:00.121Z,2.57
2019-03-03T21:15:28.788Z,2.50
2019-03-03T21:17:57.961Z,2.70
2019-03-03T21:20:26.634Z,2.40
2019-03-03T21:22:58.058Z,2.33
2019-03-03T21:25:26.729Z,2.37
2019-03-03T21:27:55.295Z,2.23
2019-03-03T21:30:25.120Z,2.90
2019-03-03T21:32:53.782Z,2.40
2019-03-03T21:35:23.245Z,2.20
2019-03-03T21:37:51.834Z,2.60
2019-03-03T21:40:23.433Z,2.43
2019-03-03T21:42:52.044Z,2.20
2019-03-03T21:45:23.594Z,2.20
2019-03-03T21:47:52.064Z,2.40
2019-03-03T21:50:28.341Z,2.37
2019-03-03T21:52:56.960Z,2.53
2019-03-03T21:55:25.555Z,2.33
2019-03-03T21:57:54.008Z,2.67
2019-03-03T22:00:27.741Z,2.40
2019-03-03T22:02:56.811Z,2.83
2019-03-03T22:05:25.342Z,2.23
2019-03-03T22:07:53.927Z,2.20
2019-03-03T22:10:24.175Z,2.60
2019-03-03T22:12:52.703Z,2.03
2019-03-03T22:15:21.160Z,2.13
2019-03-03T22:17:49.617Z,2.03
2019-03-03T22:20:19.150Z,2.10
2019-03-03T22:22:47.892Z,2.20
2019-03-03T22:25:16.359Z,2.50
2019-03-03T22:27:44.996Z,2.40
2019-03-03T22:30:15.574Z,2.53
2019-03-03T22:32:44.106Z,2.40
2019-03-03T22:35:12.911Z,2.60
2019-03-03T22:37:44.257Z,2.80
2019-03-03T22:40:18.310Z,2.60
2019-03-03T22:42:46.784Z,2.97
2019-03-03T22:45:16.290Z,2.50
2019-03-03T22:47:44.851Z,2.90
2019-03-03T22:50:17.775Z,2.73
2019-03-03T22:52:46.418Z,2.27
2019-03-03T22:55:16.332Z,2.33
2019-03-03T22:57:44.878Z,2.70
2019-03-03T23:00:48.173Z,2.60
2019-03-03T23:03:31.437Z,2.77
2019-03-03T23:06:11.839Z,2.90
2019-03-03T23:08:43.456Z,2.40
2019-03-03T23:11:30.796Z,2.17
2019-03-03T23:14:08.065Z,2.73
2019-03-03T23:16:45.248Z,2.67
2019-03-03T23:19:22.646Z,2.23
2019-03-03T23:21:56.748Z,2.70
2019-03-03T23:24:43.151Z,2.40
2019-03-03T23:27:11.617Z,1.80
2019-03-03T23:29:40.066Z,2.60
2019-03-03T23:32:08.738Z,2.53
2019-03-03T23:34:37.377Z,2.50
2019-03-03T23:37:05.853Z,2.23
2019-03-03T23:39:34.554Z,2.20
2019-03-03T23:42:03.237Z,2.30
2019-03-03T23:44:31.761Z,2.53
2019-03-03T23:47:00.225Z,2.40
2019-03-03T23:49:28.686Z,2.70
2019-03-03T23:51:57.222Z,2.43
2019-03-03T23:54:25.699Z,2.50
2019-03-03T23:56:54.145Z,2.27
2019-03-03T23:59:22.608Z,2.10
